sensor_id;sensor_type;location;lat;lon;timestamp;pressure;altitude;pressure_sealevel;temperature;humidity
11395;BME280;5753;54.402;10.220;2023-08-07T00:02:09;100405.97;;;23.83;47.53
11395;BME280;5753;54.402;10.220;2023-08-07T00:04:35;100412.03;;;23.66;47.98
11395;BME280;5753;54.402;10.220;2023-08-07T00:07:01;100413.31;;;23.76;47.67
11395;BME280;5753;54.402;10.220;2023-08-07T00:09:27;100404.28;;;23.82;47.36
11395;BME280;5753;54.402;10.220;2023-08-07T00:11:53;100412.75;;;23.89;47.50
11395;BME280;5753;54.402;10.220;2023-08-07T00:14:19;100406.47;;;23.91;47.36
11395;BME280;5753;54.402;10.220;2023-08-07T00:16:45;100404.63;;;23.74;48.20
11395;BME280;5753;54.402;10.220;2023-08-07T00:19:12;100399.34;;;24.49;46.34
11395;BME280;5753;54.402;10.220;2023-08-07T00:21:38;100392.03;;;24.00;47.53
11395;BME280;5753;54.402;10.220;2023-08-07T00:24:05;100392.13;;;24.53;46.17
11395;BME280;5753;54.402;10.220;2023-08-07T00:26:31;100396.16;;;24.24;47.37
11395;BME280;5753;54.402;10.220;2023-08-07T00:28:58;100395.84;;;25.70;44.21
11395;BME280;5753;54.402;10.220;2023-08-07T00:31:24;100396.25;;;25.12;45.32
11395;BME280;5753;54.402;10.220;2023-08-07T00:33:50;100391.31;;;24.70;46.28
11395;BME280;5753;54.402;10.220;2023-08-07T00:36:19;100382.09;;;24.61;46.20
11395;BME280;5753;54.402;10.220;2023-08-07T00:38:46;100384.97;;;25.26;45.01
11395;BME280;5753;54.402;10.220;2023-08-07T00:41:12;100384.81;;;24.77;46.13
11395;BME280;5753;54.402;10.220;2023-08-07T00:43:38;100385.13;;;23.78;48.28
11395;BME280;5753;54.402;10.220;2023-08-07T00:46:04;100380.22;;;23.50;49.58
11395;BME280;5753;54.402;10.220;2023-08-07T00:48:30;100383.34;;;24.35;47.13
11395;BME280;5753;54.402;10.220;2023-08-07T00:50:57;100388.22;;;24.79;46.65
11395;BME280;5753;54.402;10.220;2023-08-07T00:53:23;100384.91;;;24.39;47.06
11395;BME280;5753;54.402;10.220;2023-08-07T00:55:49;100387.53;;;24.75;46.94
11395;BME280;5753;54.402;10.220;2023-08-07T00:58:16;100381.34;;;24.03;48.32
11395;BME280;5753;54.402;10.220;2023-08-07T01:00:43;100378.44;;;24.09;47.38
11395;BME280;5753;54.402;10.220;2023-08-07T01:03:09;100380.84;;;23.95;47.91
11395;BME280;5753;54.402;10.220;2023-08-07T01:05:37;100377.09;;;23.81;48.45
11395;BME280;5753;54.402;10.220;2023-08-07T01:08:03;100379.09;;;24.14;48.45
11395;BME280;5753;54.402;10.220;2023-08-07T01:13:29;100373.88;;;23.94;48.22
11395;BME280;5753;54.402;10.220;2023-08-07T01:16:02;100379.38;;;23.50;49.60
11395;BME280;5753;54.402;10.220;2023-08-07T01:18:34;100371.28;;;23.54;49.24
11395;BME280;5753;54.402;10.220;2023-08-07T01:21:01;100367.00;;;23.72;48.82
11395;BME280;5753;54.402;10.220;2023-08-07T01:23:28;100362.94;;;23.45;50.31
11395;BME280;5753;54.402;10.220;2023-08-07T01:25:54;100373.28;;;24.43;47.79
11395;BME280;5753;54.402;10.220;2023-08-07T01:28:32;100365.94;;;23.76;48.78
11395;BME280;5753;54.402;10.220;2023-08-07T01:31:02;100360.81;;;23.73;49.44
11395;BME280;5753;54.402;10.220;2023-08-07T01:33:43;100362.88;;;23.67;49.69
11395;BME280;5753;54.402;10.220;2023-08-07T01:36:13;100357.66;;;24.03;49.22
11395;BME280;5753;54.402;10.220;2023-08-07T01:38:40;100359.66;;;23.98;49.88
11395;BME280;5753;54.402;10.220;2023-08-07T01:41:08;100354.97;;;23.67;50.40
11395;BME280;5753;54.402;10.220;2023-08-07T01:43:34;100343.75;;;25.07;47.02
11395;BME280;5753;54.402;10.220;2023-08-07T01:46:01;100348.50;;;23.14;51.81
11395;BME280;5753;54.402;10.220;2023-08-07T01:48:27;100349.63;;;23.29;51.65
11395;BME280;5753;54.402;10.220;2023-08-07T01:50:53;100352.31;;;23.28;51.42
11395;BME280;5753;54.402;10.220;2023-08-07T01:53:20;100350.38;;;22.70;53.54
11395;BME280;5753;54.402;10.220;2023-08-07T01:55:46;100348.13;;;23.23;52.72
11395;BME280;5753;54.402;10.220;2023-08-07T01:58:13;100337.94;;;23.55;52.63
11395;BME280;5753;54.402;10.220;2023-08-07T02:00:39;100337.94;;;22.96;53.30
11395;BME280;5753;54.402;10.220;2023-08-07T02:03:05;100340.56;;;22.33;54.87
11395;BME280;5753;54.402;10.220;2023-08-07T02:05:31;100348.84;;;22.44;55.47
11395;BME280;5753;54.402;10.220;2023-08-07T02:07:57;100341.72;;;22.26;56.05
11395;BME280;5753;54.402;10.220;2023-08-07T02:10:23;100352.25;;;22.46;56.46
11395;BME280;5753;54.402;10.220;2023-08-07T02:12:49;100345.25;;;22.47;55.98
11395;BME280;5753;54.402;10.220;2023-08-07T02:15:16;100345.03;;;22.51;56.39
11395;BME280;5753;54.402;10.220;2023-08-07T02:17:42;100343.13;;;21.89;57.96
11395;BME280;5753;54.402;10.220;2023-08-07T02:20:08;100338.09;;;22.50;56.25
11395;BME280;5753;54.402;10.220;2023-08-07T02:22:35;100340.97;;;23.27;54.17
11395;BME280;5753;54.402;10.220;2023-08-07T02:25:01;100338.56;;;23.41;53.66
11395;BME280;5753;54.402;10.220;2023-08-07T02:27:27;100334.47;;;22.53;56.14
11395;BME280;5753;54.402;10.220;2023-08-07T02:29:53;100329.22;;;22.95;55.69
11395;BME280;5753;54.402;10.220;2023-08-07T02:32:19;100330.59;;;22.61;56.60
11395;BME280;5753;54.402;10.220;2023-08-07T02:34:46;100336.84;;;21.93;59.04
11395;BME280;5753;54.402;10.220;2023-08-07T02:37:12;100348.72;;;22.47;57.56
11395;BME280;5753;54.402;10.220;2023-08-07T02:39:38;100352.59;;;22.81;56.37
11395;BME280;5753;54.402;10.220;2023-08-07T02:42:04;100344.06;;;22.10;59.18
11395;BME280;5753;54.402;10.220;2023-08-07T02:44:30;100338.28;;;22.66;56.03
11395;BME280;5753;54.402;10.220;2023-08-07T02:46:56;100343.22;;;22.53;57.81
11395;BME280;5753;54.402;10.220;2023-08-07T02:49:22;100339.41;;;22.60;56.13
11395;BME280;5753;54.402;10.220;2023-08-07T02:51:48;100326.66;;;22.51;56.74
11395;BME280;5753;54.402;10.220;2023-08-07T02:54:14;100321.44;;;23.12;54.58
11395;BME280;5753;54.402;10.220;2023-08-07T02:56:41;100328.25;;;23.16;55.02
11395;BME280;5753;54.402;10.220;2023-08-07T02:59:07;100320.72;;;22.03;59.39
11395;BME280;5753;54.402;10.220;2023-08-07T03:01:34;100318.19;;;22.23;58.40
11395;BME280;5753;54.402;10.220;2023-08-07T03:04:00;100305.72;;;23.50;54.90
11395;BME280;5753;54.402;10.220;2023-08-07T03:06:26;100313.72;;;23.28;55.15
11395;BME280;5753;54.402;10.220;2023-08-07T03:08:52;100308.59;;;22.86;55.43
11395;BME280;5753;54.402;10.220;2023-08-07T03:11:18;100305.41;;;23.18;55.30
11395;BME280;5753;54.402;10.220;2023-08-07T03:13:44;100307.28;;;22.12;57.43
11395;BME280;5753;54.402;10.220;2023-08-07T03:16:10;100307.81;;;22.62;56.50
11395;BME280;5753;54.402;10.220;2023-08-07T03:18:37;100296.50;;;23.60;54.55
11395;BME280;5753;54.402;10.220;2023-08-07T03:21:03;100306.97;;;23.22;54.60
11395;BME280;5753;54.402;10.220;2023-08-07T03:23:29;100302.75;;;22.57;56.05
11395;BME280;5753;54.402;10.220;2023-08-07T03:26:08;100296.59;;;22.79;56.74
11395;BME280;5753;54.402;10.220;2023-08-07T03:28:35;100296.56;;;21.94;59.13
11395;BME280;5753;54.402;10.220;2023-08-07T03:31:02;100282.25;;;23.27;55.33
11395;BME280;5753;54.402;10.220;2023-08-07T03:33:28;100286.22;;;23.92;53.78
11395;BME280;5753;54.402;10.220;2023-08-07T03:35:54;100296.19;;;23.29;54.40
11395;BME280;5753;54.402;10.220;2023-08-07T03:38:21;100286.28;;;23.52;54.89
11395;BME280;5753;54.402;10.220;2023-08-07T03:40:47;100288.41;;;24.01;53.44
11395;BME280;5753;54.402;10.220;2023-08-07T03:43:13;100291.19;;;23.98;53.61
11395;BME280;5753;54.402;10.220;2023-08-07T03:45:39;100285.09;;;23.41;56.05
11395;BME280;5753;54.402;10.220;2023-08-07T03:48:06;100280.75;;;23.96;53.23
11395;BME280;5753;54.402;10.220;2023-08-07T03:50:32;100283.38;;;22.82;56.51
11395;BME280;5753;54.402;10.220;2023-08-07T03:53:01;100275.56;;;23.19;55.81
11395;BME280;5753;54.402;10.220;2023-08-07T03:55:27;100284.69;;;23.88;53.61
11395;BME280;5753;54.402;10.220;2023-08-07T03:57:53;100282.94;;;23.69;54.16
11395;BME280;5753;54.402;10.220;2023-08-07T04:00:19;100285.56;;;23.69;55.05
11395;BME280;5753;54.402;10.220;2023-08-07T04:02:46;100286.41;;;22.51;57.00
11395;BME280;5753;54.402;10.220;2023-08-07T04:05:12;100282.44;;;23.97;54.34
11395;BME280;5753;54.402;10.220;2023-08-07T04:07:38;100279.59;;;24.72;51.74
11395;BME280;5753;54.402;10.220;2023-08-07T04:10:05;100281.97;;;23.89;54.19
11395;BME280;5753;54.402;10.220;2023-08-07T04:12:31;100275.00;;;24.24;52.67
11395;BME280;5753;54.402;10.220;2023-08-07T04:14:58;100279.06;;;23.39;55.43
11395;BME280;5753;54.402;10.220;2023-08-07T04:17:24;100268.03;;;23.31;56.24
11395;BME280;5753;54.402;10.220;2023-08-07T04:19:50;100267.28;;;24.02;54.53
11395;BME280;5753;54.402;10.220;2023-08-07T04:22:16;100262.41;;;23.19;56.89
11395;BME280;5753;54.402;10.220;2023-08-07T04:24:42;100261.28;;;22.86;57.45
11395;BME280;5753;54.402;10.220;2023-08-07T04:27:08;100266.34;;;23.09;56.30
11395;BME280;5753;54.402;10.220;2023-08-07T04:29:34;100274.59;;;23.60;56.15
11395;BME280;5753;54.402;10.220;2023-08-07T04:32:01;100277.94;;;23.05;57.63
11395;BME280;5753;54.402;10.220;2023-08-07T04:34:27;100272.94;;;23.19;57.28
11395;BME280;5753;54.402;10.220;2023-08-07T04:36:53;100267.63;;;23.59;56.12
11395;BME280;5753;54.402;10.220;2023-08-07T04:39:20;100265.16;;;23.16;56.58
11395;BME280;5753;54.402;10.220;2023-08-07T04:41:46;100270.66;;;24.23;53.67
11395;BME280;5753;54.402;10.220;2023-08-07T04:44:15;100270.31;;;24.12;53.80
11395;BME280;5753;54.402;10.220;2023-08-07T04:46:41;100273.03;;;23.74;54.29
11395;BME280;5753;54.402;10.220;2023-08-07T04:49:07;100277.78;;;24.21;53.71
11395;BME280;5753;54.402;10.220;2023-08-07T04:51:34;100269.91;;;23.66;55.18
11395;BME280;5753;54.402;10.220;2023-08-07T04:54:00;100263.78;;;22.89;57.43
11395;BME280;5753;54.402;10.220;2023-08-07T04:56:26;100255.84;;;23.67;55.39
11395;BME280;5753;54.402;10.220;2023-08-07T04:58:52;100264.25;;;24.10;55.32
11395;BME280;5753;54.402;10.220;2023-08-07T05:01:18;100258.25;;;24.25;53.28
11395;BME280;5753;54.402;10.220;2023-08-07T05:03:44;100254.84;;;24.23;53.93
11395;BME280;5753;54.402;10.220;2023-08-07T05:06:10;100256.13;;;24.33;52.71
11395;BME280;5753;54.402;10.220;2023-08-07T05:08:36;100258.59;;;24.36;53.19
11395;BME280;5753;54.402;10.220;2023-08-07T05:11:02;100263.72;;;23.67;54.35
11395;BME280;5753;54.402;10.220;2023-08-07T05:13:28;100251.16;;;24.62;51.83
11395;BME280;5753;54.402;10.220;2023-08-07T05:15:54;100259.91;;;23.16;55.62
11395;BME280;5753;54.402;10.220;2023-08-07T05:18:20;100249.19;;;23.21;55.80
11395;BME280;5753;54.402;10.220;2023-08-07T05:20:46;100262.44;;;23.57;54.35
11395;BME280;5753;54.402;10.220;2023-08-07T05:23:12;100257.16;;;24.12;52.49
11395;BME280;5753;54.402;10.220;2023-08-07T05:25:38;100250.97;;;23.58;53.90
11395;BME280;5753;54.402;10.220;2023-08-07T05:28:05;100261.19;;;23.66;54.25
11395;BME280;5753;54.402;10.220;2023-08-07T05:30:31;100250.22;;;23.56;54.20
11395;BME280;5753;54.402;10.220;2023-08-07T05:32:58;100248.72;;;24.23;51.32
11395;BME280;5753;54.402;10.220;2023-08-07T05:35:24;100246.88;;;24.25;51.86
11395;BME280;5753;54.402;10.220;2023-08-07T05:37:50;100264.41;;;23.90;52.58
11395;BME280;5753;54.402;10.220;2023-08-07T05:40:16;100252.78;;;23.94;51.66
11395;BME280;5753;54.402;10.220;2023-08-07T05:42:42;100255.31;;;23.59;53.19
11395;BME280;5753;54.402;10.220;2023-08-07T05:45:09;100245.72;;;23.77;52.19
11395;BME280;5753;54.402;10.220;2023-08-07T05:47:36;100246.19;;;24.56;49.35
11395;BME280;5753;54.402;10.220;2023-08-07T05:50:02;100248.03;;;24.19;49.45
11395;BME280;5753;54.402;10.220;2023-08-07T05:52:28;100239.00;;;23.51;50.83
11395;BME280;5753;54.402;10.220;2023-08-07T05:54:54;100250.91;;;24.49;49.02
11395;BME280;5753;54.402;10.220;2023-08-07T05:57:20;100249.13;;;23.79;50.08
11395;BME280;5753;54.402;10.220;2023-08-07T05:59:47;100249.44;;;23.73;50.20
11395;BME280;5753;54.402;10.220;2023-08-07T06:02:13;100247.50;;;23.39;50.88
11395;BME280;5753;54.402;10.220;2023-08-07T06:04:39;100238.59;;;23.22;51.25
11395;BME280;5753;54.402;10.220;2023-08-07T06:07:06;100247.06;;;24.39;49.46
11395;BME280;5753;54.402;10.220;2023-08-07T06:09:33;100241.47;;;24.28;49.02
11395;BME280;5753;54.402;10.220;2023-08-07T06:11:59;100253.78;;;23.91;49.30
11395;BME280;5753;54.402;10.220;2023-08-07T06:14:25;100241.06;;;24.53;48.58
11395;BME280;5753;54.402;10.220;2023-08-07T06:16:52;100238.63;;;24.32;47.91
11395;BME280;5753;54.402;10.220;2023-08-07T06:19:18;100238.56;;;24.84;47.87
11395;BME280;5753;54.402;10.220;2023-08-07T06:21:45;100240.88;;;25.07;47.34
11395;BME280;5753;54.402;10.220;2023-08-07T06:24:11;100247.16;;;23.65;48.84
11395;BME280;5753;54.402;10.220;2023-08-07T06:26:38;100242.22;;;24.12;48.40
11395;BME280;5753;54.402;10.220;2023-08-07T06:29:04;100233.13;;;24.01;48.52
11395;BME280;5753;54.402;10.220;2023-08-07T06:31:30;100225.94;;;24.73;47.09
11395;BME280;5753;54.402;10.220;2023-08-07T06:33:56;100224.03;;;25.10;46.32
11395;BME280;5753;54.402;10.220;2023-08-07T06:36:22;100234.50;;;24.44;47.39
11395;BME280;5753;54.402;10.220;2023-08-07T06:38:48;100230.50;;;25.36;46.23
11395;BME280;5753;54.402;10.220;2023-08-07T06:41:14;100233.94;;;24.20;47.84
11395;BME280;5753;54.402;10.220;2023-08-07T06:43:40;100234.47;;;24.78;46.55
11395;BME280;5753;54.402;10.220;2023-08-07T06:46:06;100246.81;;;24.43;46.79
11395;BME280;5753;54.402;10.220;2023-08-07T06:48:32;100235.44;;;23.90;48.43
11395;BME280;5753;54.402;10.220;2023-08-07T06:50:58;100240.47;;;24.30;47.72
11395;BME280;5753;54.402;10.220;2023-08-07T06:53:25;100232.66;;;24.10;47.91
11395;BME280;5753;54.402;10.220;2023-08-07T06:55:51;100238.78;;;25.61;44.90
11395;BME280;5753;54.402;10.220;2023-08-07T06:58:17;100243.41;;;24.41;46.42
11395;BME280;5753;54.402;10.220;2023-08-07T07:00:43;100240.28;;;25.18;45.20
11395;BME280;5753;54.402;10.220;2023-08-07T07:03:09;100242.81;;;24.00;47.23
11395;BME280;5753;54.402;10.220;2023-08-07T07:05:36;100247.06;;;23.48;48.21
11395;BME280;5753;54.402;10.220;2023-08-07T07:08:02;100224.88;;;24.93;45.48
11395;BME280;5753;54.402;10.220;2023-08-07T07:10:28;100239.28;;;24.18;47.38
11395;BME280;5753;54.402;10.220;2023-08-07T07:12:54;100238.69;;;24.48;46.63
11395;BME280;5753;54.402;10.220;2023-08-07T07:15:21;100244.94;;;25.78;44.78
11395;BME280;5753;54.402;10.220;2023-08-07T07:17:47;100235.97;;;25.80;44.29
11395;BME280;5753;54.402;10.220;2023-08-07T07:20:13;100238.25;;;24.04;47.46
11395;BME280;5753;54.402;10.220;2023-08-07T07:22:39;100236.06;;;24.98;45.24
11395;BME280;5753;54.402;10.220;2023-08-07T07:25:06;100239.03;;;24.06;47.10
11395;BME280;5753;54.402;10.220;2023-08-07T07:27:32;100237.09;;;25.76;44.05
11395;BME280;5753;54.402;10.220;2023-08-07T07:29:58;100243.22;;;25.77;44.00
11395;BME280;5753;54.402;10.220;2023-08-07T07:32:24;100237.81;;;24.13;46.07
11395;BME280;5753;54.402;10.220;2023-08-07T07:34:52;100243.66;;;25.04;45.35
11395;BME280;5753;54.402;10.220;2023-08-07T07:37:18;100249.75;;;25.54;44.17
11395;BME280;5753;54.402;10.220;2023-08-07T07:39:44;100258.25;;;25.12;45.28
11395;BME280;5753;54.402;10.220;2023-08-07T07:42:10;100254.56;;;24.64;46.55
11395;BME280;5753;54.402;10.220;2023-08-07T07:44:36;100248.50;;;25.61;44.58
11395;BME280;5753;54.402;10.220;2023-08-07T07:47:04;100249.72;;;25.71;43.46
11395;BME280;5753;54.402;10.220;2023-08-07T07:49:32;100247.19;;;25.36;44.86
11395;BME280;5753;54.402;10.220;2023-08-07T07:51:59;100255.28;;;25.49;44.54
11395;BME280;5753;54.402;10.220;2023-08-07T07:54:25;100247.97;;;25.38;44.65
11395;BME280;5753;54.402;10.220;2023-08-07T07:56:51;100253.34;;;25.84;43.94
11395;BME280;5753;54.402;10.220;2023-08-07T07:59:17;100247.38;;;27.15;41.70
11395;BME280;5753;54.402;10.220;2023-08-07T08:01:43;100273.22;;;25.76;44.25
11395;BME280;5753;54.402;10.220;2023-08-07T08:04:09;100248.50;;;25.77;44.19
11395;BME280;5753;54.402;10.220;2023-08-07T08:06:39;100264.88;;;26.59;42.99
11395;BME280;5753;54.402;10.220;2023-08-07T08:09:06;100274.84;;;25.29;46.16
11395;BME280;5753;54.402;10.220;2023-08-07T08:11:35;100279.94;;;26.43;43.34
11395;BME280;5753;54.402;10.220;2023-08-07T08:14:01;100277.88;;;26.48;43.10
11395;BME280;5753;54.402;10.220;2023-08-07T08:16:27;100274.03;;;27.12;42.42
11395;BME280;5753;54.402;10.220;2023-08-07T08:18:53;100277.75;;;26.19;43.28
11395;BME280;5753;54.402;10.220;2023-08-07T08:21:19;100278.63;;;26.20;43.61
11395;BME280;5753;54.402;10.220;2023-08-07T08:23:45;100264.94;;;26.43;43.31
11395;BME280;5753;54.402;10.220;2023-08-07T08:26:11;100276.63;;;25.78;44.18
11395;BME280;5753;54.402;10.220;2023-08-07T08:28:38;100272.59;;;26.48;43.13
11395;BME280;5753;54.402;10.220;2023-08-07T08:31:05;100272.66;;;26.16;42.96
11395;BME280;5753;54.402;10.220;2023-08-07T08:33:31;100274.91;;;26.98;41.35
11395;BME280;5753;54.402;10.220;2023-08-07T08:35:57;100270.47;;;26.39;42.38
11395;BME280;5753;54.402;10.220;2023-08-07T08:38:23;100280.63;;;25.69;43.62
11395;BME280;5753;54.402;10.220;2023-08-07T08:40:52;100286.03;;;26.59;41.10
11395;BME280;5753;54.402;10.220;2023-08-07T08:43:18;100286.16;;;26.72;42.19
11395;BME280;5753;54.402;10.220;2023-08-07T08:45:45;100283.88;;;26.35;42.41
11395;BME280;5753;54.402;10.220;2023-08-07T08:48:18;100280.13;;;26.24;42.12
11395;BME280;5753;54.402;10.220;2023-08-07T08:50:49;100299.56;;;26.99;41.41
11395;BME280;5753;54.402;10.220;2023-08-07T08:53:16;100282.63;;;27.99;39.37
11395;BME280;5753;54.402;10.220;2023-08-07T08:55:42;100302.19;;;27.13;40.56
11395;BME280;5753;54.402;10.220;2023-08-07T08:58:13;100289.28;;;27.78;39.11
11395;BME280;5753;54.402;10.220;2023-08-07T09:00:41;100291.22;;;27.47;40.00
11395;BME280;5753;54.402;10.220;2023-08-07T09:03:08;100301.91;;;26.59;41.00
11395;BME280;5753;54.402;10.220;2023-08-07T09:05:35;100277.72;;;26.51;40.71
11395;BME280;5753;54.402;10.220;2023-08-07T09:08:03;100295.38;;;26.34;40.82
11395;BME280;5753;54.402;10.220;2023-08-07T09:10:30;100294.78;;;27.60;39.59
11395;BME280;5753;54.402;10.220;2023-08-07T09:13:02;100288.69;;;26.73;39.61
11395;BME280;5753;54.402;10.220;2023-08-07T09:15:33;100295.97;;;26.70;39.03
11395;BME280;5753;54.402;10.220;2023-08-07T09:17:59;100294.88;;;28.41;37.90
11395;BME280;5753;54.402;10.220;2023-08-07T09:20:26;100304.19;;;26.65;39.70
11395;BME280;5753;54.402;10.220;2023-08-07T09:22:54;100288.00;;;27.42;39.59
11395;BME280;5753;54.402;10.220;2023-08-07T09:25:30;100308.91;;;27.18;39.34
11395;BME280;5753;54.402;10.220;2023-08-07T09:27:57;100300.28;;;27.43;39.15
11395;BME280;5753;54.402;10.220;2023-08-07T09:30:27;100288.00;;;25.94;41.75
11395;BME280;5753;54.402;10.220;2023-08-07T09:32:56;100290.22;;;26.77;39.50
11395;BME280;5753;54.402;10.220;2023-08-07T09:35:22;100280.22;;;26.82;39.31
11395;BME280;5753;54.402;10.220;2023-08-07T09:37:49;100301.19;;;27.85;37.68
11395;BME280;5753;54.402;10.220;2023-08-07T09:40:15;100307.91;;;28.17;37.04
11395;BME280;5753;54.402;10.220;2023-08-07T09:42:42;100294.53;;;29.11;35.86
11395;BME280;5753;54.402;10.220;2023-08-07T09:45:26;100279.69;;;28.96;35.12
11395;BME280;5753;54.402;10.220;2023-08-07T09:50:28;100280.91;;;29.28;35.07
11395;BME280;5753;54.402;10.220;2023-08-07T09:52:56;100282.38;;;29.32;34.36
11395;BME280;5753;54.402;10.220;2023-08-07T09:55:24;100286.19;;;27.57;36.49
11395;BME280;5753;54.402;10.220;2023-08-07T09:57:50;100288.03;;;27.98;35.77
11395;BME280;5753;54.402;10.220;2023-08-07T10:00:17;100280.97;;;28.90;33.85
11395;BME280;5753;54.402;10.220;2023-08-07T10:02:48;100304.56;;;29.93;33.00
11395;BME280;5753;54.402;10.220;2023-08-07T10:05:16;100294.59;;;28.32;34.47
11395;BME280;5753;54.402;10.220;2023-08-07T10:07:42;100293.75;;;29.22;33.61
11395;BME280;5753;54.402;10.220;2023-08-07T10:10:09;100311.91;;;27.69;36.41
11395;BME280;5753;54.402;10.220;2023-08-07T10:12:36;100302.59;;;26.77;37.30
11395;BME280;5753;54.402;10.220;2023-08-07T10:15:03;100297.88;;;26.22;38.76
11395;BME280;5753;54.402;10.220;2023-08-07T10:17:30;100314.00;;;26.63;38.39
11395;BME280;5753;54.402;10.220;2023-08-07T10:19:57;100315.47;;;26.53;38.04
11395;BME280;5753;54.402;10.220;2023-08-07T10:22:25;100311.19;;;27.10;36.68
11395;BME280;5753;54.402;10.220;2023-08-07T10:24:54;100326.38;;;26.77;37.23
11395;BME280;5753;54.402;10.220;2023-08-07T10:27:23;100328.44;;;26.57;36.98
11395;BME280;5753;54.402;10.220;2023-08-07T10:29:52;100322.25;;;25.95;38.92
11395;BME280;5753;54.402;10.220;2023-08-07T10:32:20;100315.06;;;27.62;36.76
11395;BME280;5753;54.402;10.220;2023-08-07T10:34:51;100328.47;;;27.16;37.11
11395;BME280;5753;54.402;10.220;2023-08-07T10:37:43;100320.38;;;26.89;37.59
11395;BME280;5753;54.402;10.220;2023-08-07T10:40:11;100316.75;;;27.63;36.37
11395;BME280;5753;54.402;10.220;2023-08-07T10:45:21;100317.84;;;29.31;32.98
11395;BME280;5753;54.402;10.220;2023-08-07T10:51:19;100313.84;;;28.88;34.49
11395;BME280;5753;54.402;10.220;2023-08-07T10:53:21;100318.84;;;29.18;33.78
11395;BME280;5753;54.402;10.220;2023-08-07T10:55:53;100314.72;;;29.01;34.14
11395;BME280;5753;54.402;10.220;2023-08-07T10:58:34;100315.56;;;27.81;35.84
11395;BME280;5753;54.402;10.220;2023-08-07T11:03:55;100315.56;;;30.13;32.90
11395;BME280;5753;54.402;10.220;2023-08-07T11:06:27;100320.53;;;26.72;37.97
11395;BME280;5753;54.402;10.220;2023-08-07T11:08:54;100322.28;;;28.67;35.33
11395;BME280;5753;54.402;10.220;2023-08-07T11:11:20;100333.53;;;28.83;35.46
11395;BME280;5753;54.402;10.220;2023-08-07T11:13:46;100334.88;;;28.91;35.36
11395;BME280;5753;54.402;10.220;2023-08-07T11:16:13;100332.09;;;29.56;34.79
11395;BME280;5753;54.402;10.220;2023-08-07T11:18:39;100328.75;;;28.09;36.71
11395;BME280;5753;54.402;10.220;2023-08-07T11:21:12;100328.88;;;26.50;39.21
11395;BME280;5753;54.402;10.220;2023-08-07T11:23:39;100366.31;;;25.95;40.22
11395;BME280;5753;54.402;10.220;2023-08-07T11:26:06;100348.66;;;25.80;41.46
11395;BME280;5753;54.402;10.220;2023-08-07T11:28:32;100351.88;;;26.48;39.63
11395;BME280;5753;54.402;10.220;2023-08-07T11:30:58;100333.75;;;27.73;38.63
11395;BME280;5753;54.402;10.220;2023-08-07T11:33:26;100336.72;;;28.09;37.54
11395;BME280;5753;54.402;10.220;2023-08-07T11:35:53;100361.69;;;26.46;39.70
11395;BME280;5753;54.402;10.220;2023-08-07T11:38:42;100352.41;;;25.76;41.75
11395;BME280;5753;54.402;10.220;2023-08-07T11:41:13;100368.09;;;25.79;41.53
11395;BME280;5753;54.402;10.220;2023-08-07T11:43:40;100367.25;;;26.25;40.67
11395;BME280;5753;54.402;10.220;2023-08-07T11:46:08;100396.69;;;24.49;42.48
11395;BME280;5753;54.402;10.220;2023-08-07T11:48:36;100355.78;;;25.62;41.53
11395;BME280;5753;54.402;10.220;2023-08-07T11:51:03;100354.13;;;25.10;41.76
11395;BME280;5753;54.402;10.220;2023-08-07T11:53:32;100369.00;;;24.60;43.77
11395;BME280;5753;54.402;10.220;2023-08-07T11:56:02;100362.66;;;26.13;41.15
11395;BME280;5753;54.402;10.220;2023-08-07T11:58:38;100362.03;;;25.10;42.21
11395;BME280;5753;54.402;10.220;2023-08-07T12:01:12;100390.78;;;26.14;39.68
11395;BME280;5753;54.402;10.220;2023-08-07T12:03:50;100365.09;;;26.00;40.73
11395;BME280;5753;54.402;10.220;2023-08-07T12:06:16;100382.22;;;26.86;38.96
11395;BME280;5753;54.402;10.220;2023-08-07T12:08:43;100358.94;;;25.35;40.62
11395;BME280;5753;54.402;10.220;2023-08-07T12:11:11;100359.69;;;25.22;42.09
11395;BME280;5753;54.402;10.220;2023-08-07T12:13:44;100362.94;;;23.84;44.17
11395;BME280;5753;54.402;10.220;2023-08-07T12:16:11;100375.97;;;25.30;42.66
11395;BME280;5753;54.402;10.220;2023-08-07T12:18:45;100364.34;;;24.82;41.25
11395;BME280;5753;54.402;10.220;2023-08-07T12:21:15;100360.88;;;27.19;38.01
11395;BME280;5753;54.402;10.220;2023-08-07T12:23:43;100362.25;;;25.06;40.38
11395;BME280;5753;54.402;10.220;2023-08-07T12:26:09;100373.97;;;25.00;40.86
11395;BME280;5753;54.402;10.220;2023-08-07T12:28:36;100382.66;;;25.86;39.06
11395;BME280;5753;54.402;10.220;2023-08-07T12:31:02;100363.72;;;27.87;36.73
11395;BME280;5753;54.402;10.220;2023-08-07T12:33:29;100358.34;;;27.46;35.46
11395;BME280;5753;54.402;10.220;2023-08-07T12:35:56;100365.84;;;27.68;35.57
11395;BME280;5753;54.402;10.220;2023-08-07T12:38:22;100346.69;;;29.87;32.51
11395;BME280;5753;54.402;10.220;2023-08-07T12:40:48;100361.84;;;28.16;34.99
11395;BME280;5753;54.402;10.220;2023-08-07T12:43:14;100362.03;;;28.94;34.07
11395;BME280;5753;54.402;10.220;2023-08-07T12:45:40;100365.81;;;27.54;36.15
11395;BME280;5753;54.402;10.220;2023-08-07T12:48:07;100368.44;;;27.11;36.75
11395;BME280;5753;54.402;10.220;2023-08-07T12:50:33;100360.63;;;26.02;37.99
11395;BME280;5753;54.402;10.220;2023-08-07T12:52:59;100400.84;;;26.08;36.65
11395;BME280;5753;54.402;10.220;2023-08-07T12:55:26;100381.03;;;26.46;35.70
11395;BME280;5753;54.402;10.220;2023-08-07T12:57:53;100374.97;;;27.34;34.50
11395;BME280;5753;54.402;10.220;2023-08-07T13:00:19;100378.06;;;30.90;31.20
11395;BME280;5753;54.402;10.220;2023-08-07T13:02:47;100378.13;;;32.13;28.59
11395;BME280;5753;54.402;10.220;2023-08-07T13:05:14;100370.78;;;31.60;29.34